Time;durP1;ratioP1;P1;durP2;ratioP2;P2;SDS_P1;SDS_P2;PMS_P1;PMS_P2;Temp;Humidity;BMP_temperature;BMP_pressure;BME280_temperature;BME280_humidity;BME280_pressure;Samples;Min_cycle;Max_cycle;Signal;HPM_P1;HPM_P2
2023/05/20 00:00:47;;;;;;;;;;;14.60;57.10;;;10.10;93.18;95480.56;5029440;28;19934;-50
2023/05/20 00:03:14;;;;;;;;;;;14.60;57.10;;;10.10;93.10;95485.09;5025787;28;19912;-46
2023/05/20 00:05:40;;;;;;;;;;;14.60;57.20;;;10.10;93.15;95490.41;5031095;28;19913;-49
2023/05/20 00:08:08;;;;;;;;;;;14.60;57.20;;;10.10;93.14;95487.75;5010241;28;19909;-53
2023/05/20 00:10:35;;;;;;;;;;;14.60;57.30;;;10.09;93.45;95491.47;5014232;28;19954;-46
2023/05/20 00:13:01;;;;;;;;;;;14.60;57.30;;;10.07;94.58;95490.94;5008058;28;19914;-44
2023/05/20 00:15:27;;;;;;;;;;;14.60;57.30;;;10.08;94.11;95492.53;5001483;28;19909;-45
2023/05/20 00:17:54;;;;;;;;;;;14.60;57.30;;;10.06;94.18;95490.16;5011529;28;19916;-47
2023/05/20 00:20:20;;;;;;;;;;;14.60;57.40;;;10.06;93.84;95486.66;5001113;28;20372;-51
2023/05/20 00:22:46;;;;;;;;;;;14.60;57.40;;;10.06;93.88;95484.00;5011698;28;19915;-45
2023/05/20 00:25:13;;;;;;;;;;;14.60;57.40;;;10.05;94.95;95485.88;5009528;28;19978;-44
2023/05/20 00:27:42;;;;;;;;;;;14.60;57.40;;;10.07;95.52;95481.09;5011650;28;19919;-44
2023/05/20 00:30:09;;;;;;;;;;;14.60;57.40;;;10.09;95.34;95478.97;5010985;28;19909;-45
2023/05/20 00:32:35;;;;;;;;;;;14.60;57.40;;;10.09;95.15;95478.16;5011082;28;19909;-45
2023/05/20 00:35:03;;;;;;;;;;;14.60;57.50;;;10.05;96.15;95472.56;5007242;28;20023;-46
2023/05/20 00:37:29;;;;;;;;;;;14.60;57.50;;;10.08;96.01;95477.38;4997018;28;19992;-45
2023/05/20 00:39:55;;;;;;;;;;;14.60;57.50;;;10.08;96.33;95474.69;5011245;28;20016;-52
2023/05/20 00:42:26;;;;;;;;;;;14.60;57.60;;;10.07;96.08;95462.47;5009396;28;19940;-53
2023/05/20 00:44:54;;;;;;;;;;;14.60;57.60;;;10.05;96.15;95477.88;5006596;28;19960;-45
2023/05/20 00:47:27;;;;;;;;;;;14.60;57.70;;;10.01;96.63;95476.03;5024786;28;19924;-46
2023/05/20 00:49:53;;;;;;;;;;;14.50;57.70;;;9.93;97.18;95470.16;5020319;28;19909;-46
2023/05/20 00:52:21;;;;;;;;;;;14.50;57.70;;;9.87;97.78;95463.22;5026152;28;19917;-44
2023/05/20 00:54:48;;;;;;;;;;;14.50;57.80;;;9.80;98.13;95467.19;5019745;28;19910;-47
2023/05/20 00:57:15;;;;;;;;;;;14.50;57.80;;;9.65;98.88;95458.13;5024492;28;19909;-47
2023/05/20 00:59:41;;;;;;;;;;;14.40;57.80;;;9.70;98.80;95455.47;5026696;28;19917;-45
2023/05/20 01:02:07;;;;;;;;;;;14.40;57.80;;;9.67;99.03;95455.19;5010045;28;20425;-45
2023/05/20 01:04:33;;;;;;;;;;;14.30;57.80;;;9.62;98.72;95452.50;5011442;28;19909;-45
2023/05/20 01:07:03;;;;;;;;;;;14.20;57.90;;;9.58;98.55;95459.41;5010243;28;19909;-45
2023/05/20 01:09:31;;;;;;;;;;;14.20;57.90;;;9.51;98.42;95454.34;5026700;28;20306;-47
2023/05/20 01:12:12;;;;;;;;;;;14.10;57.90;;;9.27;99.71;95453.97;5026403;28;20340;-51
2023/05/20 01:14:49;;;;;;;;;;;14.00;58.00;;;9.18;100.00;95451.03;5026772;28;19915;-45
2023/05/20 01:17:19;;;;;;;;;;;13.90;58.00;;;9.13;99.76;95440.34;5026654;28;19921;-48
2023/05/20 01:19:47;;;;;;;;;;;13.80;58.00;;;9.09;99.49;95436.63;5025364;28;19917;-45
2023/05/20 01:22:14;;;;;;;;;;;13.70;58.10;;;9.03;99.78;95432.34;5010964;28;19915;-44
2023/05/20 01:24:52;;;;;;;;;;;13.60;58.20;;;8.95;99.87;95436.25;5022122;28;20112;-45
2023/05/20 01:27:19;;;;;;;;;;;13.50;58.20;;;8.85;100.00;95441.53;5026144;28;20363;-43
2023/05/20 01:29:51;;;;;;;;;;;13.40;58.30;;;8.67;100.00;95437.44;5011149;28;19939;-47
2023/05/20 01:32:35;;;;;;;;;;;13.30;58.40;;;8.53;100.00;95431.75;5009837;28;19909;-45
2023/05/20 01:35:03;;;;;;;;;;;13.30;58.50;;;8.50;100.00;95426.97;5025078;28;19919;-45
2023/05/20 01:37:31;;;;;;;;;;;13.20;58.60;;;8.55;100.00;95427.00;5025200;28;19909;-45
2023/05/20 01:39:58;;;;;;;;;;;13.10;58.70;;;8.56;100.00;95417.97;5037052;28;19919;-45
2023/05/20 01:42:26;;;;;;;;;;;13.00;58.70;;;8.52;100.00;95419.56;5007844;28;19944;-45
2023/05/20 01:44:53;;;;;;;;;;;13.00;58.80;;;8.45;100.00;95428.78;5001998;28;19909;-45
2023/05/20 01:47:19;;;;;;;;;;;12.90;58.80;;;8.38;100.00;95429.00;5026643;28;20351;-45
2023/05/20 01:49:48;;;;;;;;;;;12.80;59.50;;;8.29;100.00;95428.63;5021534;28;19916;-45
2023/05/20 01:52:14;;;;;;;;;;;12.80;59.00;;;8.19;100.00;95435.72;5012234;28;19917;-47
2023/05/20 01:54:39;;;;;;;;;;;12.70;59.00;;;8.13;100.00;95434.06;5007680;28;20326;-47
2023/05/20 01:57:05;;;;;;;;;;;12.60;59.00;;;8.05;100.00;95433.47;5013116;28;20390;-44
2023/05/20 01:59:31;;;;;;;;;;;12.60;59.10;;;7.92;100.00;95433.88;5014794;28;19926;-44
2023/05/20 02:01:57;;;;;;;;;;;12.50;59.10;;;7.83;100.00;95430.06;5009672;28;20019;-45
2023/05/20 02:04:22;;;;;;;;;;;12.40;59.20;;;7.75;100.00;95419.94;5014581;28;20418;-45
2023/05/20 02:06:48;;;;;;;;;;;12.40;59.30;;;7.64;100.00;95411.84;5006542;28;20021;-50
2023/05/20 02:09:14;;;;;;;;;;;12.30;59.30;;;7.60;100.00;95399.38;5014577;28;19971;-45
2023/05/20 02:11:40;;;;;;;;;;;12.20;59.30;;;7.58;100.00;95401.44;5013872;28;19920;-46
2023/05/20 02:14:06;;;;;;;;;;;12.20;59.40;;;7.60;100.00;95399.38;5003894;28;19913;-45
2023/05/20 02:16:31;;;;;;;;;;;12.10;59.60;;;7.60;100.00;95397.50;5029835;28;19956;-45
2023/05/20 02:18:57;;;;;;;;;;;12.10;59.60;;;7.59;100.00;95398.56;5020134;28;20408;-44
2023/05/20 02:21:24;;;;;;;;;;;12.10;59.70;;;7.59;100.00;95392.47;5019097;28;19909;-45
2023/05/20 02:23:50;;;;;;;;;;;12.00;59.80;;;7.58;100.00;95389.03;5001147;28;19916;-47
2023/05/20 02:26:16;;;;;;;;;;;12.00;59.90;;;7.57;100.00;95398.00;5007218;28;19909;-45
2023/05/20 02:28:45;;;;;;;;;;;12.00;60.00;;;7.56;100.00;95401.72;5014119;28;20405;-45
2023/05/20 02:31:12;;;;;;;;;;;12.00;60.00;;;7.57;100.00;95411.25;5003021;28;19913;-45
2023/05/20 02:33:37;;;;;;;;;;;12.00;60.10;;;7.54;100.00;95400.34;5014188;28;19909;-45
2023/05/20 02:36:04;;;;;;;;;;;12.00;60.20;;;7.48;100.00;95399.50;5012763;28;19915;-46
2023/05/20 02:38:31;;;;;;;;;;;12.00;60.20;;;7.45;100.00;95392.03;5014077;28;19939;-44
2023/05/20 02:40:58;;;;;;;;;;;12.00;60.20;;;7.52;100.00;95399.78;5013620;28;19909;-45
2023/05/20 02:43:25;;;;;;;;;;;12.00;60.30;;;7.49;100.00;95402.94;5006069;28;19960;-45
2023/05/20 02:45:50;;;;;;;;;;;12.00;60.30;;;7.44;100.00;95394.97;5007755;28;20421;-49
2023/05/20 02:48:16;;;;;;;;;;;12.00;60.40;;;7.47;100.00;95402.41;5012796;28;19913;-44
2023/05/20 02:50:43;;;;;;;;;;;11.90;60.40;;;7.46;100.00;95409.56;5013218;28;20397;-45
2023/05/20 02:53:09;;;;;;;;;;;11.90;60.40;;;7.42;100.00;95397.84;5013312;28;20016;-45
2023/05/20 02:55:35;;;;;;;;;;;11.90;60.50;;;7.40;100.00;95395.44;5011676;28;19913;-45
2023/05/20 02:58:01;;;;;;;;;;;11.90;60.50;;;7.36;100.00;95399.66;5013707;28;19913;-50
2023/05/20 03:00:29;;;;;;;;;;;11.80;60.50;;;7.34;100.00;95417.66;5009263;28;19910;-47
2023/05/20 03:02:55;;;;;;;;;;;11.80;60.60;;;7.29;100.00;95409.63;5014152;28;20291;-46
2023/05/20 03:05:21;;;;;;;;;;;11.80;60.70;;;7.21;100.00;95412.72;5013316;28;19909;-50
2023/05/20 03:07:47;;;;;;;;;;;11.80;60.70;;;7.19;100.00;95404.22;5012400;28;19909;-44
2023/05/20 03:10:14;;;;;;;;;;;11.70;60.70;;;7.24;100.00;95403.47;5028499;28;19949;-44
2023/05/20 03:12:40;;;;;;;;;;;11.70;61.60;;;7.20;100.00;95403.16;5007048;28;19909;-45
2023/05/20 03:15:07;;;;;;;;;;;11.70;60.80;;;7.14;100.00;95399.66;5008485;28;20426;-45
2023/05/20 03:17:33;;;;;;;;;;;11.70;60.90;;;7.06;100.00;95397.44;5013369;28;19974;-46
2023/05/20 03:20:00;;;;;;;;;;;11.60;60.90;;;7.05;100.00;95387.09;5011783;28;20016;-47
2023/05/20 03:22:26;;;;;;;;;;;11.60;60.90;;;7.05;100.00;95393.19;5012852;28;19944;-45
2023/05/20 03:24:52;;;;;;;;;;;11.60;61.00;;;7.03;100.00;95394.50;5007464;28;19952;-46
2023/05/20 03:27:18;;;;;;;;;;;11.50;61.00;;;6.98;100.00;95392.56;5011918;28;19909;-45
2023/05/20 03:29:43;;;;;;;;;;;11.50;61.00;;;6.90;100.00;95383.22;5012824;28;20333;-45
2023/05/20 03:32:09;;;;;;;;;;;11.50;61.10;;;6.83;100.00;95390.53;5002935;28;19941;-45
2023/05/20 03:34:35;;;;;;;;;;;11.40;61.10;;;6.84;100.00;95391.34;5012911;28;20008;-45
2023/05/20 03:37:01;;;;;;;;;;;11.30;61.20;;;6.82;100.00;95388.13;5003456;28;19953;-46
2023/05/20 03:39:27;;;;;;;;;;;11.30;61.30;;;6.76;100.00;95389.91;5008694;28;19966;-46
2023/05/20 03:41:52;;;;;;;;;;;11.30;61.30;;;6.73;100.00;95387.75;5012336;28;19952;-45
2023/05/20 03:44:18;;;;;;;;;;;11.20;61.30;;;6.69;100.00;95384.78;5011793;28;19909;-44
2023/05/20 03:46:44;;;;;;;;;;;11.20;61.50;;;6.65;100.00;95388.97;5012867;28;20381;-43
2023/05/20 03:49:10;;;;;;;;;;;11.20;61.50;;;6.57;100.00;95383.28;5003662;28;19909;-45
2023/05/20 03:51:36;;;;;;;;;;;11.10;61.50;;;6.49;100.00;95381.88;5012350;28;19916;-44
2023/05/20 03:54:01;;;;;;;;;;;11.10;61.60;;;6.49;100.00;95387.16;5011295;28;20402;-44
2023/05/20 03:56:27;;;;;;;;;;;11.10;61.70;;;6.55;100.00;95383.56;5012593;28;19993;-44
2023/05/20 03:58:53;;;;;;;;;;;11.10;61.70;;;6.56;100.00;95387.00;5012392;28;19913;-45
2023/05/20 04:01:24;;;;;;;;;;;11.10;61.80;;;6.55;100.00;95396.78;5008084;28;26889;-51
2023/05/20 04:03:50;;;;;;;;;;;11.10;61.80;;;6.51;100.00;95389.56;5008290;28;19916;-47
2023/05/20 04:06:16;;;;;;;;;;;11.10;61.90;;;6.52;100.00;95394.63;5011044;28;22236;-45
2023/05/20 04:08:41;;;;;;;;;;;11.10;61.90;;;6.50;100.00;95394.06;5012489;28;19917;-45
2023/05/20 04:11:07;;;;;;;;;;;11.10;61.90;;;6.54;100.00;95392.53;5011909;28;19963;-45
2023/05/20 04:13:33;;;;;;;;;;;11.10;61.90;;;6.54;100.00;95391.72;5001400;28;19936;-45
2023/05/20 04:16:00;;;;;;;;;;;11.10;62.00;;;6.58;100.00;95387.53;5011899;28;19962;-49
2023/05/20 04:18:28;;;;;;;;;;;11.20;62.10;;;6.61;100.00;95387.88;5010706;28;19919;-48
2023/05/20 04:21:00;;;;;;;;;;;11.20;62.10;;;6.65;100.00;95388.19;5011810;28;20363;-45
2023/05/20 04:23:26;;;;;;;;;;;11.30;62.20;;;6.70;100.00;95394.31;5012142;28;20410;-45
2023/05/20 04:25:51;;;;;;;;;;;11.30;62.30;;;6.78;100.00;95394.97;5010918;28;19909;-46
2023/05/20 04:28:17;;;;;;;;;;;11.40;62.40;;;6.85;100.00;95400.88;5012022;28;20382;-47
2023/05/20 04:30:44;;;;;;;;;;;11.50;62.50;;;6.91;100.00;95399.91;5005426;28;19917;-45
2023/05/20 04:33:10;;;;;;;;;;;11.60;62.50;;;6.98;100.00;95392.56;5008472;28;19909;-46
2023/05/20 04:35:37;;;;;;;;;;;11.60;62.50;;;7.09;100.00;95398.81;5010650;28;19912;-44
2023/05/20 04:38:02;;;;;;;;;;;11.70;62.50;;;7.16;100.00;95388.81;5014798;28;19992;-48
2023/05/20 04:40:28;;;;;;;;;;;11.80;62.50;;;7.27;100.00;95389.72;5031223;28;20000;-44
2023/05/20 04:42:54;;;;;;;;;;;12.00;62.60;;;7.36;100.00;95390.88;5026085;28;20252;-45
2023/05/20 04:45:22;;;;;;;;;;;12.00;62.40;;;7.45;100.00;95393.91;5030446;28;19909;-44
2023/05/20 04:47:48;;;;;;;;;;;12.10;62.50;;;7.54;100.00;95400.34;5031582;28;20019;-44
2023/05/20 04:50:13;;;;;;;;;;;12.20;62.60;;;7.66;100.00;95403.66;5013874;28;20019;-45
2023/05/20 04:52:41;;;;;;;;;;;12.40;62.60;;;7.78;100.00;95398.22;5031311;28;19917;-46
2023/05/20 04:55:09;;;;;;;;;;;12.50;62.70;;;7.92;100.00;95386.13;5013692;28;19956;-45
2023/05/20 04:57:37;;;;;;;;;;;12.70;62.70;;;8.07;100.00;95378.31;5025961;28;19909;-46
2023/05/20 05:00:06;;;;;;;;;;;12.80;62.70;;;8.23;100.00;95379.22;5028808;28;19920;-47
2023/05/20 05:02:33;;;;;;;;;;;13.00;62.70;;;8.41;100.00;95388.69;5019458;28;19909;-45
2023/05/20 05:04:59;;;;;;;;;;;13.20;62.70;;;8.60;100.00;95380.31;5022178;28;19909;-45
2023/05/20 05:07:25;;;;;;;;;;;13.40;62.70;;;8.78;100.00;95387.84;5024056;28;20339;-45
2023/05/20 05:09:50;;;;;;;;;;;13.60;62.60;;;8.93;100.00;95390.59;5031399;28;19978;-50
2023/05/20 05:12:16;;;;;;;;;;;13.80;62.50;;;9.07;100.00;95382.94;5028348;28;19962;-45
2023/05/20 05:14:42;;;;;;;;;;;13.90;62.40;;;9.24;100.00;95383.53;5022985;28;19991;-45
2023/05/20 05:17:08;;;;;;;;;;;14.10;62.40;;;9.43;100.00;95383.03;5031209;28;19966;-44
2023/05/20 05:19:33;;;;;;;;;;;14.40;62.30;;;9.62;100.00;95391.34;5028448;28;19913;-44
2023/05/20 05:21:59;;;;;;;;;;;14.60;62.20;;;9.80;100.00;95385.53;5030535;28;19909;-44
2023/05/20 05:24:25;;;;;;;;;;;14.80;62.00;;;9.94;100.00;95381.28;5024849;28;20641;-44
2023/05/20 05:26:55;;;;;;;;;;;15.00;61.90;;;10.08;100.00;95381.56;5011114;28;19909;-49
2023/05/20 05:29:21;;;;;;;;;;;15.20;61.70;;;10.22;100.00;95371.19;5034838;28;20266;-49
2023/05/20 05:31:47;;;;;;;;;;;15.40;61.50;;;10.34;100.00;95376.25;5024654;28;20618;-46
2023/05/20 05:34:13;;;;;;;;;;;15.60;61.30;;;10.45;100.00;95383.19;5050516;28;19962;-45
2023/05/20 05:36:40;;;;;;;;;;;15.70;61.20;;;10.59;100.00;95381.56;5031418;28;19908;-47
2023/05/20 05:39:06;;;;;;;;;;;15.90;61.00;;;10.78;100.00;95375.66;5025451;28;19916;-47
2023/05/20 05:41:31;;;;;;;;;;;16.00;60.80;;;10.88;100.00;95368.44;5020300;28;19952;-45
2023/05/20 05:43:58;;;;;;;;;;;16.20;60.60;;;11.01;100.00;95364.41;5011455;28;20014;-45
2023/05/20 05:46:24;;;;;;;;;;;16.40;60.40;;;11.12;100.00;95370.47;5020232;28;19916;-45
2023/05/20 05:48:50;;;;;;;;;;;16.50;60.20;;;11.26;100.00;95360.84;5021227;28;20326;-45
2023/05/20 05:51:17;;;;;;;;;;;16.70;60.10;;;11.28;97.38;95358.69;5028762;28;19921;-46
2023/05/20 05:53:42;;;;;;;;;;;16.80;59.90;;;11.22;95.51;95372.31;5018281;28;19952;-45
2023/05/20 05:56:09;;;;;;;;;;;16.90;59.70;;;11.40;95.26;95378.91;5010574;28;20389;-45
2023/05/20 05:58:35;;;;;;;;;;;17.00;59.60;;;11.49;93.99;95377.25;5015612;28;19916;-45
2023/05/20 06:01:00;;;;;;;;;;;17.10;59.60;;;11.54;93.54;95377.22;5017741;28;20007;-46
2023/05/20 06:03:28;;;;;;;;;;;17.10;59.50;;;11.62;91.65;95373.97;5016719;28;20348;-47
2023/05/20 06:05:54;;;;;;;;;;;17.20;59.50;;;11.61;92.92;95385.72;5029228;28;19936;-48
2023/05/20 06:08:20;;;;;;;;;;;17.20;59.30;;;11.77;92.50;95386.44;5009159;28;20249;-45
2023/05/20 06:10:49;;;;;;;;;;;17.30;59.30;;;11.82;90.34;95389.88;5029738;28;19924;-45
2023/05/20 06:13:16;;;;;;;;;;;17.30;59.20;;;11.79;90.65;95374.41;5021572;28;19909;-45
2023/05/20 06:15:43;;;;;;;;;;;17.40;59.10;;;11.88;90.07;95369.31;5021441;28;19913;-45
2023/05/20 06:18:08;;;;;;;;;;;17.40;58.90;;;11.96;90.67;95371.38;5016681;28;19916;-53
2023/05/20 06:20:34;;;;;;;;;;;17.50;58.90;;;11.61;91.63;95371.59;5019121;28;19913;-45
2023/05/20 06:23:00;;;;;;;;;;;17.50;58.70;;;11.81;92.04;95376.78;5027893;28;19912;-46
2023/05/20 06:25:27;;;;;;;;;;;17.60;58.60;;;11.88;91.74;95363.97;5017590;28;19944;-48
2023/05/20 06:27:52;;;;;;;;;;;17.60;58.50;;;11.91;91.49;95358.09;5026569;28;19947;-50
2023/05/20 06:30:18;;;;;;;;;;;17.70;58.50;;;12.03;90.71;95350.53;5026638;28;19944;-47
2023/05/20 06:32:45;;;;;;;;;;;17.80;58.40;;;12.12;89.98;95350.72;5026328;28;20331;-45
2023/05/20 06:35:11;;;;;;;;;;;17.90;58.20;;;12.18;90.21;95341.56;5020604;28;19912;-49
2023/05/20 06:37:37;;;;;;;;;;;18.10;58.10;;;12.36;89.21;95339.31;5004133;28;20438;-47
2023/05/20 06:40:04;;;;;;;;;;;18.30;58.70;;;12.54;88.30;95335.94;5012548;28;19943;-46
2023/05/20 06:42:29;;;;;;;;;;;18.40;58.40;;;12.43;89.22;95329.88;5010115;28;19919;-45
2023/05/20 06:44:55;;;;;;;;;;;18.60;57.60;;;12.70;88.56;95332.00;5013926;28;19909;-46
2023/05/20 06:47:21;;;;;;;;;;;18.70;57.50;;;12.85;88.20;95330.22;5013695;28;19909;-50
2023/05/20 06:49:47;;;;;;;;;;;18.90;57.40;;;12.93;87.42;95332.28;5012372;28;19964;-46
2023/05/20 06:52:12;;;;;;;;;;;18.90;57.30;;;13.14;86.32;95330.97;5013347;28;19921;-45
2023/05/20 06:54:41;;;;;;;;;;;19.00;57.20;;;13.23;84.53;95331.13;5020898;28;19963;-45
2023/05/20 06:57:08;;;;;;;;;;;19.10;57.20;;;13.18;85.39;95350.69;5006660;28;20284;-46
2023/05/20 06:59:37;;;;;;;;;;;19.30;57.00;;;13.26;83.87;95349.31;5013659;28;20019;-47
2023/05/20 07:02:04;;;;;;;;;;;19.40;56.90;;;13.38;83.97;95351.56;5005043;28;19910;-45
2023/05/20 07:04:30;;;;;;;;;;;19.40;56.70;;;13.06;84.27;95347.63;5013318;28;19955;-44
2023/05/20 07:06:55;;;;;;;;;;;19.50;56.60;;;12.87;86.27;95344.91;5007167;28;19913;-47
2023/05/20 07:09:21;;;;;;;;;;;19.50;56.30;;;13.25;85.22;95338.91;5004338;28;19913;-51
2023/05/20 07:11:47;;;;;;;;;;;19.50;56.30;;;13.26;84.54;95341.28;5012670;28;19913;-46
2023/05/20 07:14:13;;;;;;;;;;;19.60;56.80;;;13.25;83.78;95341.56;5002156;28;19909;-45
2023/05/20 07:16:39;;;;;;;;;;;19.50;56.20;;;13.12;83.74;95338.47;5013140;28;20392;-45
2023/05/20 07:19:04;;;;;;;;;;;19.60;56.10;;;12.82;87.64;95338.84;5011033;28;20326;-45
2023/05/20 07:21:30;;;;;;;;;;;19.40;55.90;;;12.92;86.74;95352.88;5012597;28;19916;-46
2023/05/20 07:23:56;;;;;;;;;;;19.40;56.00;;;13.12;86.63;95343.81;5020607;28;20390;-45
2023/05/20 07:26:22;;;;;;;;;;;19.30;56.10;;;13.25;86.35;95338.91;5010980;28;20007;-45
2023/05/20 07:28:48;;;;;;;;;;;19.20;56.20;;;13.35;84.60;95341.44;5013359;28;19909;-44
2023/05/20 07:31:13;;;;;;;;;;;19.20;56.30;;;13.24;85.59;95338.06;5003632;28;19909;-45
2023/05/20 07:33:39;;;;;;;;;;;19.20;56.20;;;13.19;85.77;95338.94;5012708;28;20038;-45
2023/05/20 07:36:05;;;;;;;;;;;19.20;56.20;;;13.33;85.32;95336.38;5012120;28;19908;-49
2023/05/20 07:38:31;;;;;;;;;;;19.20;56.20;;;12.94;87.02;95333.88;5000451;28;20000;-46
2023/05/20 07:40:57;;;;;;;;;;;19.30;56.00;;;13.11;86.53;95325.41;5012107;28;19916;-46
2023/05/20 07:43:23;;;;;;;;;;;19.40;55.80;;;13.22;85.42;95324.19;5011558;28;19916;-45
2023/05/20 07:45:49;;;;;;;;;;;19.50;55.80;;;13.08;86.36;95328.66;5027940;28;19909;-48
2023/05/20 07:48:15;;;;;;;;;;;19.50;56.20;;;13.23;85.39;95331.13;5011270;28;19982;-47
2023/05/20 07:50:41;;;;;;;;;;;19.60;55.60;;;13.41;86.29;95329.59;5011199;28;19920;-44
2023/05/20 07:53:07;;;;;;;;;;;19.60;55.60;;;13.57;83.86;95327.50;5010004;28;20434;-55
2023/05/20 07:55:34;;;;;;;;;;;19.70;55.60;;;13.68;83.34;95330.84;5008698;28;19962;-44
2023/05/20 07:58:00;;;;;;;;;;;19.70;55.60;;;13.72;83.08;95321.91;5011683;28;19912;-45
2023/05/20 08:00:26;;;;;;;;;;;19.80;55.40;;;13.76;83.08;95327.50;5010135;28;19971;-49
2023/05/20 08:02:52;;;;;;;;;;;19.90;55.40;;;13.67;83.76;95329.25;5008188;28;19909;-46
2023/05/20 08:05:18;;;;;;;;;;;19.90;55.30;;;13.53;85.20;95326.47;5012397;28;19913;-45
2023/05/20 08:07:44;;;;;;;;;;;19.90;55.20;;;13.69;84.46;95319.81;5010696;28;19944;-47
2023/05/20 08:10:10;;;;;;;;;;;19.90;55.20;;;13.76;83.64;95317.59;5011711;28;20022;-47
2023/05/20 08:12:36;;;;;;;;;;;20.00;55.20;;;13.64;84.39;95319.91;5007973;28;20379;-45
2023/05/20 08:15:03;;;;;;;;;;;20.10;55.10;;;13.82;85.04;95316.44;5006862;28;19909;-45
2023/05/20 08:17:28;;;;;;;;;;;20.20;55.00;;;13.94;83.74;95317.84;5011924;28;19909;-44
2023/05/20 08:19:54;;;;;;;;;;;20.30;55.00;;;13.64;84.78;95315.34;5010317;28;20291;-45
2023/05/20 08:22:20;;;;;;;;;;;20.20;54.90;;;13.89;84.03;95308.81;5034208;22;19952;-49
2023/05/20 08:24:46;;;;;;;;;;;20.20;54.80;;;13.99;83.95;95305.19;5031180;28;19913;-47
2023/05/20 08:27:11;;;;;;;;;;;20.40;54.80;;;13.88;83.11;95309.91;5031206;28;19912;-47
2023/05/20 08:29:37;;;;;;;;;;;20.50;54.60;;;14.21;83.29;95299.19;5031353;28;19908;-50
2023/05/20 08:32:03;;;;;;;;;;;20.60;54.50;;;14.45;81.11;95312.44;5020952;28;19909;-47
2023/05/20 08:34:29;;;;;;;;;;;20.70;54.40;;;14.24;81.13;95316.56;5011541;28;19944;-48
2023/05/20 08:36:56;;;;;;;;;;;20.70;54.30;;;14.09;83.12;95314.94;5010265;28;19967;-49
2023/05/20 08:39:22;;;;;;;;;;;20.70;54.30;;;14.28;81.73;95309.53;4995457;28;19913;-47
2023/05/20 08:41:48;;;;;;;;;;;20.70;54.30;;;14.11;82.80;95310.88;5010239;28;19916;-47
2023/05/20 08:44:18;;;;;;;;;;;20.60;54.20;;;14.15;82.79;95321.81;5014992;28;19933;-47
2023/05/20 08:46:45;;;;;;;;;;;20.70;54.20;;;14.05;82.11;95319.28;5010400;28;19936;-54
2023/05/20 08:49:11;;;;;;;;;;;20.90;54.00;;;14.29;82.77;95306.56;5009381;28;19916;-50
2023/05/20 08:51:39;;;;;;;;;;;21.00;53.90;;;14.57;81.16;95304.75;5009430;28;19909;-47
2023/05/20 08:54:08;;;;;;;;;;;21.10;53.80;;;14.79;79.92;95309.44;5010293;28;19913;-54
2023/05/20 08:56:35;;;;;;;;;;;21.20;53.80;;;14.80;79.19;95297.63;5010500;28;19909;-51
2023/05/20 08:59:03;;;;;;;;;;;21.20;53.80;;;14.72;78.92;95300.97;5011288;28;19927;-49
2023/05/20 09:01:28;;;;;;;;;;;21.10;53.80;;;14.63;79.63;95302.75;5004310;28;19958;-49
2023/05/20 09:03:54;;;;;;;;;;;21.00;53.80;;;14.70;79.12;95311.22;5017956;28;19913;-50
2023/05/20 09:06:20;;;;;;;;;;;20.90;53.90;;;14.69;78.72;95301.56;5018271;28;19916;-49
2023/05/20 09:08:50;;;;;;;;;;;20.80;53.90;;;14.76;79.04;95307.34;5012572;28;19921;-51
2023/05/20 09:11:16;;;;;;;;;;;20.80;53.90;;;14.99;78.60;95300.19;5017594;28;19909;-51
2023/05/20 09:13:42;;;;;;;;;;;21.20;53.80;;;15.37;77.46;95286.53;5016585;28;19912;-48
2023/05/20 09:16:10;;;;;;;;;;;21.80;53.40;;;15.60;75.63;95303.47;5017910;28;19916;-47
2023/05/20 09:18:39;;;;;;;;;;;22.40;52.90;;;15.55;75.25;95292.84;5031450;28;20368;-50
2023/05/20 09:21:08;;;;;;;;;;;22.80;53.00;;;15.80;75.31;95294.19;5032874;28;20011;-52
2023/05/20 09:23:37;;;;;;;;;;;23.00;52.00;;;15.98;74.32;95294.31;5017752;28;19917;-50
2023/05/20 09:26:03;;;;;;;;;;;23.20;51.80;;;15.90;74.75;95293.16;5027256;28;19909;-52
2023/05/20 09:28:29;;;;;;;;;;;23.30;51.60;;;16.03;74.08;95291.50;5032757;28;20294;-49
2023/05/20 09:30:59;;;;;;;;;;;23.30;51.50;;;15.90;73.72;95288.56;5009814;28;19919;-52
2023/05/20 09:33:30;;;;;;;;;;;23.50;51.40;;;16.17;72.51;95303.78;5015882;28;19932;-49
2023/05/20 09:36:10;;;;;;;;;;;23.50;51.20;;;16.37;71.69;95293.63;5017688;28;19919;-53
2023/05/20 09:38:38;;;;;;;;;;;23.60;51.20;;;16.36;70.66;95305.47;5008383;28;19913;-55
2023/05/20 09:41:12;;;;;;;;;;;23.60;51.60;;;16.05;71.31;95308.13;5017130;28;19913;-47
2023/05/20 09:43:42;;;;;;;;;;;23.50;50.80;;;15.70;73.87;95300.59;5016375;28;19913;-48
2023/05/20 09:46:08;;;;;;;;;;;23.30;50.80;;;15.94;72.84;95302.19;5017762;28;19909;-48
2023/05/20 09:48:37;;;;;;;;;;;23.40;50.90;;;15.43;74.64;95289.91;5016792;28;19909;-48
2023/05/20 09:51:06;;;;;;;;;;;23.60;50.40;;;15.56;73.66;95290.97;5017010;28;19923;-47
2023/05/20 09:53:32;;;;;;;;;;;23.60;50.30;;;16.03;74.00;95278.88;5016270;28;19909;-48
2023/05/20 09:55:58;;;;;;;;;;;23.60;50.10;;;16.47;72.38;95289.88;5016259;28;20387;-50
2023/05/20 09:58:27;;;;;;;;;;;23.70;50.20;;;16.58;70.37;95292.00;5017482;28;19920;-49
2023/05/20 10:00:53;;;;;;;;;;;23.70;50.30;;;16.59;70.50;95290.09;5016156;28;19954;-48
2023/05/20 10:03:26;;;;;;;;;;;23.60;50.90;;;16.52;72.19;95287.06;5016892;28;20385;-48
2023/05/20 10:06:13;;;;;;;;;;;23.50;50.40;;;16.90;71.19;95282.03;5017382;28;20425;-49
2023/05/20 10:09:36;;;;;;;;;;;23.60;50.50;;;17.03;69.16;95277.63;5016011;28;20459;-48
2023/05/20 10:12:21;;;;;;;;;;;24.00;50.20;;;16.76;70.35;95284.81;5012794;28;19909;-50
2023/05/20 10:15:43;;;;;;;;;;;24.20;50.00;;;16.88;68.91;95278.84;5027752;28;19913;-49
2023/05/20 10:18:52;;;;;;;;;;;24.20;49.80;;;17.01;68.21;95277.13;5015417;28;20015;-54
2023/05/20 10:21:23;;;;;;;;;;;24.30;49.50;;;16.79;69.77;95280.72;5005450;28;20382;-48
2023/05/20 10:23:50;;;;;;;;;;;24.10;49.30;;;16.69;70.87;95275.59;5014123;28;19909;-48
2023/05/20 10:26:17;;;;;;;;;;;24.00;49.50;;;16.15;70.94;95265.69;5013111;28;19959;-49
2023/05/20 10:28:44;;;;;;;;;;;23.80;49.40;;;16.41;71.13;95267.69;5014167;28;19909;-48
2023/05/20 10:31:21;;;;;;;;;;;23.90;49.40;;;16.57;69.28;95281.53;5020600;28;19954;-50
2023/05/20 10:33:50;;;;;;;;;;;24.00;49.50;;;16.82;68.29;95286.25;5000935;28;20264;-51
2023/05/20 10:36:26;;;;;;;;;;;23.90;49.50;;;16.89;67.89;95293.88;5012968;28;19917;-50
2023/05/20 10:38:58;;;;;;;;;;;23.80;49.50;;;16.95;67.05;95289.16;5006844;28;20282;-52
2023/05/20 10:41:28;;;;;;;;;;;23.80;49.50;;;17.00;68.04;95278.25;5011913;28;19994;-50
2023/05/20 10:44:05;;;;;;;;;;;23.90;49.30;;;16.79;68.28;95278.00;5012828;28;19999;-48
2023/05/20 10:46:33;;;;;;;;;;;24.10;49.00;;;16.92;67.43;95276.31;5013974;28;20383;-48
2023/05/20 10:49:01;;;;;;;;;;;24.20;48.80;;;16.96;67.42;95280.00;5012807;28;20371;-48
2023/05/20 10:51:30;;;;;;;;;;;24.10;48.70;;;17.02;68.36;95284.91;5012983;28;19916;-50
2023/05/20 10:53:56;;;;;;;;;;;24.00;48.80;;;17.02;67.10;95284.13;5013437;28;19913;-49
2023/05/20 10:56:25;;;;;;;;;;;23.80;48.80;;;16.59;67.95;95282.81;5012347;28;19909;-48
2023/05/20 10:58:53;;;;;;;;;;;23.60;48.90;;;16.57;68.30;95289.59;5013695;28;20391;-54
2023/05/20 11:01:25;;;;;;;;;;;23.40;49.00;;;16.32;69.37;95281.09;5012003;28;19909;-48
2023/05/20 11:03:55;;;;;;;;;;;23.20;49.00;;;16.56;70.25;95277.28;5013349;28;20299;-52
2023/05/20 11:06:27;;;;;;;;;;;23.10;49.10;;;16.72;68.71;95269.59;5012363;28;19948;-53
2023/05/20 11:08:53;;;;;;;;;;;23.10;49.20;;;16.76;67.93;95265.19;5001751;28;19958;-56
2023/05/20 11:11:20;;;;;;;;;;;23.10;49.30;;;16.91;68.05;95263.97;5012754;28;19960;-51
2023/05/20 11:13:51;;;;;;;;;;;23.10;49.20;;;16.90;68.46;95262.41;5012332;28;19909;-48
2023/05/20 11:16:21;;;;;;;;;;;23.20;49.20;;;16.80;68.19;95255.41;5013226;28;20372;-50
2023/05/20 11:18:49;;;;;;;;;;;23.20;49.20;;;16.59;69.64;95258.63;5014064;28;19963;-48